createdAt,value
2023-03-02T00:02:12.837Z,101964.81
2023-03-02T00:04:56.842Z,101968.88
2023-03-02T00:07:34.924Z,101967.13
2023-03-02T00:10:03.834Z,101968.22
2023-03-02T00:12:34.011Z,101967.44
2023-03-02T00:15:05.320Z,101969.16
2023-03-02T00:17:34.521Z,101969.94
2023-03-02T00:20:11.606Z,101974.28
2023-03-02T00:22:43.197Z,101976.81
2023-03-02T00:25:13.648Z,101972.09
2023-03-02T00:27:42.487Z,101970.50
2023-03-02T00:30:13.296Z,101978.13
2023-03-02T00:32:41.779Z,101971.50
2023-03-02T00:35:10.514Z,101973.00
2023-03-02T00:37:39.138Z,101973.78
2023-03-02T00:40:09.996Z,101963.13
2023-03-02T00:42:38.844Z,101967.91
2023-03-02T00:45:08.180Z,101965.47
2023-03-02T00:47:37.797Z,101958.09
2023-03-02T00:50:07.884Z,101958.09
2023-03-02T00:52:35.910Z,101952.41
2023-03-02T00:55:04.347Z,101957.50
2023-03-02T00:57:32.250Z,101963.53
2023-03-02T01:00:00.569Z,101957.41
2023-03-02T01:02:28.743Z,101957.28
2023-03-02T01:04:56.843Z,101955.41
2023-03-02T01:07:28.510Z,101955.53
2023-03-02T01:09:56.697Z,101959.63
2023-03-02T01:12:24.673Z,101952.84
2023-03-02T01:14:52.740Z,101953.47
2023-03-02T01:17:22.757Z,101952.19
2023-03-02T01:19:51.328Z,101941.78
2023-03-02T01:22:21.019Z,101932.72
2023-03-02T01:24:49.973Z,101932.50
2023-03-02T01:27:18.214Z,101935.16
2023-03-02T01:29:46.312Z,101930.25
2023-03-02T01:32:14.327Z,101925.75
2023-03-02T01:34:42.354Z,101922.34
2023-03-02T01:37:10.470Z,101926.13
2023-03-02T01:39:38.548Z,101934.88
2023-03-02T01:43:21.391Z,101928.56
2023-03-02T01:45:57.463Z,101920.75
2023-03-02T01:48:40.769Z,101927.13
2023-03-02T01:51:14.814Z,101923.47
2023-03-02T01:53:50.468Z,101919.13
2023-03-02T01:56:27.203Z,101913.09
2023-03-02T01:59:02.559Z,101914.63
2023-03-02T02:01:35.501Z,101912.25
2023-03-02T02:04:04.120Z,101912.00
2023-03-02T02:07:12.852Z,101912.25
2023-03-02T02:09:49.038Z,101909.53
2023-03-02T02:12:23.838Z,101912.66
2023-03-02T02:14:52.312Z,101910.88
2023-03-02T02:17:20.728Z,101916.16
2023-03-02T02:20:10.601Z,101910.38
2023-03-02T02:23:27.164Z,101912.63
2023-03-02T02:26:18.264Z,101903.03
2023-03-02T02:29:12.307Z,101906.72
2023-03-02T02:31:53.518Z,101899.56
2023-03-02T02:34:34.421Z,101903.53
2023-03-02T02:37:39.583Z,101903.81
2023-03-02T02:40:16.742Z,101889.75
2023-03-02T02:42:49.786Z,101891.00
2023-03-02T02:45:27.370Z,101894.88
2023-03-02T02:47:57.482Z,101890.84
2023-03-02T02:50:32.554Z,101887.44
2023-03-02T02:53:18.329Z,101888.88
2023-03-02T02:55:51.870Z,101885.69
2023-03-02T02:58:52.686Z,101890.72
2023-03-02T03:01:26.719Z,101899.84
2023-03-02T03:04:03.785Z,101893.56
2023-03-02T03:06:42.156Z,101887.53
2023-03-02T03:09:13.346Z,101878.91
2023-03-02T03:11:48.369Z,101874.88
2023-03-02T03:14:24.531Z,101872.06
2023-03-02T03:16:53.058Z,101883.44
2023-03-02T03:19:32.407Z,101880.06
2023-03-02T03:22:02.895Z,101880.34
2023-03-02T03:24:35.225Z,101883.88
2023-03-02T03:27:05.525Z,101881.34
2023-03-02T03:29:35.882Z,101887.16
2023-03-02T03:32:07.184Z,101885.19
2023-03-02T03:34:40.904Z,101884.38
2023-03-02T03:37:15.128Z,101886.41
2023-03-02T03:39:43.843Z,101879.97
2023-03-02T03:42:12.482Z,101885.69
2023-03-02T03:44:40.820Z,101882.28
2023-03-02T03:47:08.875Z,101875.25
2023-03-02T03:49:37.262Z,101872.44
2023-03-02T03:52:05.575Z,101866.81
2023-03-02T03:54:34.138Z,101869.44
2023-03-02T03:57:02.280Z,101871.78
2023-03-02T03:59:30.365Z,101871.47
2023-03-02T04:02:01.810Z,101872.78
2023-03-02T04:04:34.784Z,101873.81
2023-03-02T04:07:03.578Z,101866.91
2023-03-02T04:09:34.060Z,101875.50
2023-03-02T04:12:02.314Z,101872.13
2023-03-02T04:14:33.657Z,101870.97
2023-03-02T04:17:05.563Z,101876.59
2023-03-02T04:19:35.572Z,101874.97
2023-03-02T04:22:04.588Z,101874.66
2023-03-02T04:24:36.294Z,101883.88
2023-03-02T04:27:13.865Z,101878.31
2023-03-02T04:29:45.792Z,101883.56
2023-03-02T04:32:19.947Z,101888.25
2023-03-02T04:34:56.844Z,101888.28
2023-03-02T04:37:25.199Z,101889.88
2023-03-02T04:39:56.983Z,101893.50
2023-03-02T04:42:28.410Z,101895.13
2023-03-02T04:45:03.074Z,101893.66
2023-03-02T04:47:39.815Z,101892.84
2023-03-02T04:50:13.635Z,101900.16
2023-03-02T04:52:48.186Z,101894.31
2023-03-02T04:55:28.959Z,101894.34
2023-03-02T04:57:57.608Z,101894.59
2023-03-02T05:00:28.947Z,101896.47
2023-03-02T05:02:58.394Z,101893.91
2023-03-02T05:05:36.154Z,101882.72
2023-03-02T05:08:07.934Z,101886.78
2023-03-02T05:10:36.479Z,101889.28
2023-03-02T05:13:13.788Z,101888.00
2023-03-02T05:15:48.398Z,101894.72
2023-03-02T05:18:20.920Z,101889.78
2023-03-02T05:20:54.040Z,101892.69
2023-03-02T05:23:34.786Z,101895.69
2023-03-02T05:26:26.504Z,101895.81
2023-03-02T05:29:02.361Z,101897.09
2023-03-02T05:31:43.976Z,101895.19
2023-03-02T05:34:27.450Z,101891.84
2023-03-02T05:40:21.078Z,101887.34
2023-03-02T05:42:55.780Z,101883.50
2023-03-02T05:45:48.729Z,101886.78
2023-03-02T05:48:39.261Z,101882.47
2023-03-02T05:51:15.933Z,101880.75
2023-03-02T05:53:48.713Z,101881.72
2023-03-02T05:56:22.950Z,101888.41
2023-03-02T05:58:51.872Z,101883.53
2023-03-02T06:01:28.577Z,101887.69
2023-03-02T06:04:07.415Z,101882.66
2023-03-02T06:06:39.511Z,101892.84
2023-03-02T06:09:34.441Z,101892.84
2023-03-02T06:12:03.062Z,101896.06
2023-03-02T06:14:31.654Z,101899.88
2023-03-02T06:17:00.394Z,101906.31
2023-03-02T06:19:28.932Z,101912.94
2023-03-02T06:21:57.322Z,101906.56
2023-03-02T06:24:27.704Z,101903.75
2023-03-02T06:26:59.102Z,101913.03
2023-03-02T06:29:32.358Z,101912.03
2023-03-02T06:32:27.723Z,101920.84
2023-03-02T06:35:05.377Z,101918.16
2023-03-02T06:37:34.171Z,101922.56
2023-03-02T06:40:08.566Z,101923.41
2023-03-02T06:42:39.203Z,101929.63
2023-03-02T06:45:16.611Z,101922.16
2023-03-02T06:47:47.697Z,101933.69
2023-03-02T06:50:16.638Z,101930.47
2023-03-02T06:52:47.903Z,101932.38
2023-03-02T06:55:16.152Z,101921.03
2023-03-02T06:57:44.328Z,101929.88
2023-03-02T07:00:17.159Z,101930.38
2023-03-02T07:02:56.914Z,101929.50
2023-03-02T07:05:36.023Z,101926.03
2023-03-02T07:11:13.185Z,101934.13
2023-03-02T07:13:56.403Z,101936.00
2023-03-02T07:16:24.769Z,101936.88
2023-03-02T07:18:58.490Z,101937.50
2023-03-02T07:21:33.232Z,101928.94
2023-03-02T07:24:10.836Z,101932.50
2023-03-02T07:26:39.386Z,101931.91
2023-03-02T07:29:08.093Z,101924.25
2023-03-02T07:31:39.774Z,101923.22
2023-03-02T07:34:11.766Z,101928.88
2023-03-02T07:36:40.514Z,101924.88
2023-03-02T07:39:08.785Z,101921.38
2023-03-02T07:41:39.985Z,101927.97
2023-03-02T07:44:08.179Z,101927.81
2023-03-02T07:46:36.795Z,101932.59
2023-03-02T07:49:15.038Z,101923.38
2023-03-02T07:51:52.734Z,101931.78
2023-03-02T07:54:26.605Z,101927.09
2023-03-02T07:56:54.782Z,101925.72
2023-03-02T07:59:23.099Z,101927.28
2023-03-02T08:01:54.472Z,101922.03
2023-03-02T08:04:26.137Z,101918.03
2023-03-02T08:06:54.191Z,101920.78
2023-03-02T08:09:25.424Z,101928.75
2023-03-02T08:11:53.314Z,101924.25
2023-03-02T08:14:21.191Z,101927.03
2023-03-02T08:16:50.040Z,101935.63
2023-03-02T08:19:19.712Z,101921.66
2023-03-02T08:21:47.872Z,101932.72
2023-03-02T08:24:15.825Z,101931.16
2023-03-02T08:26:43.774Z,101932.94
2023-03-02T08:29:11.943Z,101928.31
2023-03-02T08:31:40.116Z,101923.69
2023-03-02T08:34:08.272Z,101915.84
2023-03-02T08:36:36.219Z,101914.97
2023-03-02T08:39:04.181Z,101918.22
2023-03-02T08:41:32.465Z,101919.53
2023-03-02T08:44:00.587Z,101917.97
2023-03-02T08:46:30.575Z,101917.66
2023-03-02T08:48:58.496Z,101925.22
2023-03-02T08:51:26.953Z,101920.22
2023-03-02T08:53:56.542Z,101915.94
2023-03-02T08:56:32.914Z,101908.47
2023-03-02T08:59:13.444Z,101914.22
2023-03-02T09:01:42.623Z,101906.13
2023-03-02T09:04:11.381Z,101908.53
2023-03-02T09:06:44.958Z,101893.00
2023-03-02T09:09:15.645Z,101894.53
2023-03-02T09:11:44.968Z,101891.69
2023-03-02T09:14:13.411Z,101887.06
2023-03-02T09:16:44.288Z,101877.88
2023-03-02T09:19:13.898Z,101888.41
2023-03-02T09:21:42.009Z,101885.59
2023-03-02T09:24:10.237Z,101898.44
2023-03-02T09:26:39.290Z,101901.09
2023-03-02T09:29:07.897Z,101898.84
2023-03-02T09:31:37.459Z,101903.66
2023-03-02T09:34:06.298Z,101892.53
2023-03-02T09:36:36.502Z,101898.56
2023-03-02T09:39:09.511Z,101893.28
2023-03-02T09:42:24.074Z,101895.28
2023-03-02T09:45:38.178Z,101898.31
2023-03-02T09:48:36.612Z,101894.72
2023-03-02T09:51:45.720Z,101901.16
2023-03-02T09:54:25.187Z,101894.97
2023-03-02T09:56:59.424Z,101900.00
2023-03-02T10:00:09.529Z,101903.16
2023-03-02T10:03:14.753Z,101899.94
2023-03-02T10:05:54.142Z,101898.56
2023-03-02T10:08:31.008Z,101895.78
2023-03-02T10:11:54.866Z,101895.31
2023-03-02T10:14:49.845Z,101887.31
2023-03-02T10:18:01.194Z,101881.28
2023-03-02T10:20:44.982Z,101894.31
2023-03-02T10:23:41.305Z,101899.88
2023-03-02T10:26:38.216Z,101895.91
2023-03-02T10:29:43.016Z,101903.13
2023-03-02T10:32:37.523Z,101895.38
2023-03-02T10:35:22.964Z,101902.69
2023-03-02T10:38:22.843Z,101893.22
2023-03-02T10:41:03.827Z,101904.59
2023-03-02T10:44:01.772Z,101890.53
2023-03-02T10:46:44.996Z,101880.81
2023-03-02T10:49:34.359Z,101884.47
2023-03-02T10:52:14.234Z,101890.63
2023-03-02T10:54:42.911Z,101879.59
2023-03-02T10:57:37.179Z,101885.25
2023-03-02T11:00:26.076Z,101884.56
2023-03-02T11:03:06.011Z,101875.81
2023-03-02T11:05:45.380Z,101875.66
2023-03-02T11:08:28.015Z,101869.72
2023-03-02T11:11:03.477Z,101874.50
2023-03-02T11:13:38.242Z,101870.78
2023-03-02T11:16:18.239Z,101873.47
2023-03-02T11:18:55.782Z,101861.50
2023-03-02T11:21:43.730Z,101871.38
2023-03-02T11:24:24.231Z,101867.22
2023-03-02T11:27:03.026Z,101861.94
2023-03-02T11:30:06.806Z,101868.47
2023-03-02T11:32:54.138Z,101861.81
2023-03-02T11:35:43.645Z,101860.09
2023-03-02T11:38:32.584Z,101855.47
2023-03-02T11:41:32.978Z,101857.63
2023-03-02T11:44:14.855Z,101849.34
2023-03-02T11:46:49.576Z,101849.06
2023-03-02T11:49:50.976Z,101839.19
2023-03-02T11:52:30.607Z,101841.72
2023-03-02T11:55:13.047Z,101844.03
2023-03-02T11:57:55.727Z,101848.28
2023-03-02T12:00:43.341Z,101840.78
2023-03-02T12:03:17.348Z,101842.41
2023-03-02T12:06:05.257Z,101835.28
2023-03-02T12:08:40.754Z,101831.59
2023-03-02T12:11:17.903Z,101829.75
2023-03-02T12:13:55.163Z,101826.00
2023-03-02T12:16:43.173Z,101825.59
2023-03-02T12:19:17.079Z,101814.56
2023-03-02T12:22:09.066Z,101809.59
2023-03-02T12:24:42.090Z,101814.84
2023-03-02T12:27:16.614Z,101803.06
2023-03-02T12:30:28.308Z,101809.66
2023-03-02T12:33:25.719Z,101795.16
2023-03-02T12:36:12.917Z,101797.59
2023-03-02T12:38:47.932Z,101796.56
2023-03-02T12:42:30.052Z,101801.44
2023-03-02T12:45:47.632Z,101793.56
2023-03-02T12:48:56.783Z,101785.66
2023-03-02T12:51:32.367Z,101797.94
2023-03-02T12:54:21.022Z,101798.97
2023-03-02T12:56:49.782Z,101797.00
2023-03-02T12:59:27.281Z,101796.25
2023-03-02T13:02:24.345Z,101788.06
2023-03-02T13:05:00.766Z,101789.63
2023-03-02T13:08:02.834Z,101781.75
2023-03-02T13:10:53.165Z,101787.91
2023-03-02T13:13:38.341Z,101791.06
2023-03-02T13:16:28.680Z,101793.41
2023-03-02T13:19:11.504Z,101782.59
2023-03-02T13:21:40.067Z,101785.78
2023-03-02T13:24:44.781Z,101784.97
2023-03-02T13:27:25.455Z,101780.84
2023-03-02T13:29:56.641Z,101781.91
2023-03-02T13:32:38.649Z,101779.81
2023-03-02T13:35:24.413Z,101776.06
2023-03-02T13:38:37.005Z,101781.28
2023-03-02T13:41:05.673Z,101768.38
2023-03-02T13:43:40.052Z,101765.53
2023-03-02T13:46:29.898Z,101759.34
2023-03-02T13:49:11.484Z,101762.09
2023-03-02T13:51:47.253Z,101766.47
2023-03-02T13:54:28.205Z,101762.22
2023-03-02T13:57:00.972Z,101761.94
2023-03-02T13:59:33.817Z,101757.69
2023-03-02T14:02:01.893Z,101757.25
2023-03-02T14:04:29.920Z,101758.19
2023-03-02T14:06:57.885Z,101758.59
2023-03-02T14:09:27.296Z,101750.72
2023-03-02T14:11:57.761Z,101752.03
2023-03-02T14:14:29.672Z,101739.97
2023-03-02T14:16:57.723Z,101737.53
2023-03-02T14:19:25.965Z,101737.69
2023-03-02T14:21:53.896Z,101738.28
2023-03-02T14:24:21.955Z,101732.88
2023-03-02T14:26:50.480Z,101730.69
2023-03-02T14:29:36.273Z,101722.06
2023-03-02T14:32:06.728Z,101711.78
2023-03-02T14:34:37.254Z,101720.50
2023-03-02T14:37:18.181Z,101713.03
2023-03-02T14:39:54.176Z,101715.72
2023-03-02T14:42:24.074Z,101707.94
2023-03-02T14:44:53.098Z,101706.03
2023-03-02T14:47:22.443Z,101690.25
2023-03-02T14:49:50.490Z,101693.69
2023-03-02T14:52:40.770Z,101685.41
2023-03-02T14:55:28.464Z,101685.59
2023-03-02T14:58:10.609Z,101681.78
2023-03-02T15:00:39.146Z,101681.16
2023-03-02T15:03:07.440Z,101681.50
2023-03-02T15:05:35.643Z,101677.00
2023-03-02T15:08:03.820Z,101674.50
2023-03-02T15:10:31.812Z,101672.38
2023-03-02T15:12:59.715Z,101674.88
2023-03-02T15:15:27.940Z,101676.38
2023-03-02T15:17:55.874Z,101668.00
2023-03-02T15:20:23.929Z,101669.78
2023-03-02T15:22:52.649Z,101671.75
2023-03-02T15:25:29.148Z,101670.53
2023-03-02T15:27:57.501Z,101667.75
2023-03-02T15:30:30.503Z,101667.34
2023-03-02T15:33:01.827Z,101664.97
2023-03-02T15:35:30.322Z,101659.41
2023-03-02T15:38:02.565Z,101667.34
2023-03-02T15:40:30.590Z,101669.78
2023-03-02T15:42:59.145Z,101666.22
2023-03-02T15:45:27.591Z,101670.00
2023-03-02T15:47:55.852Z,101672.00
2023-03-02T15:50:26.754Z,101665.16
2023-03-02T15:52:58.571Z,101664.25
2023-03-02T15:55:27.136Z,101659.03
2023-03-02T15:57:58.081Z,101663.16
2023-03-02T16:00:27.578Z,101662.69
2023-03-02T16:02:55.488Z,101658.66
2023-03-02T16:05:23.508Z,101656.03
2023-03-02T16:07:51.454Z,101661.44
2023-03-02T16:10:20.660Z,101659.28
2023-03-02T16:12:48.624Z,101656.66
2023-03-02T16:15:16.691Z,101654.06
2023-03-02T16:17:44.643Z,101653.50
2023-03-02T16:20:12.978Z,101657.38
2023-03-02T16:22:40.863Z,101651.91
2023-03-02T16:25:09.348Z,101648.25
2023-03-02T16:27:37.811Z,101648.81
2023-03-02T16:30:08.174Z,101655.03
2023-03-02T16:32:36.266Z,101654.06
2023-03-02T16:35:04.557Z,101662.06
2023-03-02T16:37:32.537Z,101658.66
2023-03-02T16:40:00.592Z,101661.91
2023-03-02T16:42:30.490Z,101659.69
2023-03-02T16:44:58.364Z,101658.47
2023-03-02T16:47:29.555Z,101657.63
2023-03-02T16:49:58.693Z,101662.28
2023-03-02T16:52:26.680Z,101661.81
2023-03-02T16:54:54.627Z,101663.34
2023-03-02T16:57:22.865Z,101662.50
2023-03-02T16:59:50.798Z,101658.97
2023-03-02T17:02:18.755Z,101663.91
2023-03-02T17:04:46.641Z,101658.78
2023-03-02T17:07:14.579Z,101664.09
2023-03-02T17:09:42.705Z,101661.97
2023-03-02T17:12:10.657Z,101667.16
2023-03-02T17:14:38.526Z,101666.63
2023-03-02T17:17:06.419Z,101660.16
2023-03-02T17:19:34.425Z,101657.41
2023-03-02T17:22:04.202Z,101667.91
2023-03-02T17:24:34.116Z,101657.34
2023-03-02T17:27:02.161Z,101660.22
2023-03-02T17:29:30.217Z,101659.13
2023-03-02T17:31:58.444Z,101654.63
2023-03-02T17:34:31.152Z,101662.69
2023-03-02T17:37:00.779Z,101665.91
2023-03-02T17:39:31.722Z,101677.16
2023-03-02T17:41:59.707Z,101665.69
2023-03-02T17:44:27.924Z,101666.13
2023-03-02T17:46:58.863Z,101674.72
2023-03-02T17:49:26.816Z,101679.56
2023-03-02T17:51:54.916Z,101680.34
2023-03-02T17:54:22.832Z,101682.97
2023-03-02T17:56:50.843Z,101683.19
2023-03-02T17:59:18.958Z,101686.47
2023-03-02T18:01:47.028Z,101682.28
2023-03-02T18:04:15.061Z,101682.16
2023-03-02T18:06:42.985Z,101683.53
2023-03-02T18:09:11.002Z,101689.53
2023-03-02T18:11:42.582Z,101690.25
2023-03-02T18:14:17.956Z,101692.16
2023-03-02T18:16:46.855Z,101696.56
2023-03-02T18:19:14.846Z,101698.72
2023-03-02T18:21:43.048Z,101695.41
2023-03-02T18:24:11.322Z,101698.34
2023-03-02T18:26:39.405Z,101695.09
2023-03-02T18:29:07.630Z,101691.69
2023-03-02T18:31:35.729Z,101701.81
2023-03-02T18:34:04.294Z,101694.84
2023-03-02T18:36:32.333Z,101696.78
2023-03-02T18:39:00.623Z,101689.47
2023-03-02T18:41:28.518Z,101687.97
2023-03-02T18:43:56.446Z,101693.28
2023-03-02T18:46:30.592Z,101690.47
2023-03-02T18:49:00.903Z,101685.72
2023-03-02T18:51:28.882Z,101688.00
2023-03-02T18:53:57.289Z,101690.59
2023-03-02T18:56:25.383Z,101684.00
2023-03-02T18:58:53.447Z,101686.19
2023-03-02T19:01:22.253Z,101681.13
2023-03-02T19:03:50.344Z,101683.06
2023-03-02T19:06:18.300Z,101683.53
2023-03-02T19:08:48.058Z,101681.94
2023-03-02T19:11:18.620Z,101689.13
2023-03-02T19:13:46.986Z,101686.81
2023-03-02T19:16:15.465Z,101681.69
2023-03-02T19:18:44.353Z,101671.28
2023-03-02T19:21:12.246Z,101677.97
2023-03-02T19:23:41.004Z,101667.38
2023-03-02T19:26:09.831Z,101673.56
2023-03-02T19:28:39.844Z,101682.22
2023-03-02T19:31:11.108Z,101681.47
2023-03-02T19:33:40.220Z,101681.69
2023-03-02T19:36:09.556Z,101681.25
2023-03-02T19:38:41.440Z,101676.41
2023-03-02T19:41:17.236Z,101685.84
2023-03-02T19:43:46.444Z,101679.44
2023-03-02T19:46:17.435Z,101686.63
2023-03-02T19:48:45.476Z,101678.84
2023-03-02T19:51:15.629Z,101685.81
2023-03-02T19:53:45.897Z,101681.31
2023-03-02T19:56:15.786Z,101684.25
2023-03-02T19:58:47.984Z,101695.50
2023-03-02T20:01:24.927Z,101693.75
2023-03-02T20:03:55.364Z,101705.03
2023-03-02T20:06:31.533Z,101713.06
2023-03-02T20:09:06.492Z,101707.72
2023-03-02T20:11:34.777Z,101705.75
2023-03-02T20:14:03.095Z,101713.38
2023-03-02T20:16:35.694Z,101713.13
2023-03-02T20:19:05.368Z,101722.22
2023-03-02T20:21:34.912Z,101731.47
2023-03-02T20:24:02.819Z,101729.66
2023-03-02T20:26:31.419Z,101726.28
2023-03-02T20:29:05.165Z,101719.31
2023-03-02T20:31:35.133Z,101721.50
2023-03-02T20:34:10.814Z,101719.94
2023-03-02T20:36:39.062Z,101720.06
2023-03-02T20:39:22.412Z,101725.31
2023-03-02T20:41:51.156Z,101721.94
2023-03-02T20:44:21.085Z,101727.81
2023-03-02T20:46:56.680Z,101727.44
2023-03-02T20:49:27.787Z,101730.22
2023-03-02T20:51:58.989Z,101720.59
2023-03-02T20:54:38.497Z,101722.69
2023-03-02T20:57:08.625Z,101717.66
2023-03-02T20:59:39.251Z,101713.59
2023-03-02T21:02:07.955Z,101712.88
2023-03-02T21:04:36.105Z,101713.16
2023-03-02T21:07:04.338Z,101712.78
2023-03-02T21:09:32.308Z,101717.41
2023-03-02T21:12:00.301Z,101708.56
2023-03-02T21:14:29.679Z,101709.56
2023-03-02T21:16:58.571Z,101714.03
2023-03-02T21:19:29.406Z,101713.81
2023-03-02T21:21:58.023Z,101719.09
2023-03-02T21:24:26.235Z,101717.47
2023-03-02T21:26:55.110Z,101710.66
2023-03-02T21:29:26.776Z,101705.84
2023-03-02T21:31:55.197Z,101713.88
2023-03-02T21:34:23.224Z,101710.31
2023-03-02T21:36:53.565Z,101708.31
2023-03-02T21:39:23.557Z,101709.13
2023-03-02T21:41:53.312Z,101711.03
2023-03-02T21:44:21.495Z,101703.88
2023-03-02T21:46:50.807Z,101711.41
2023-03-02T21:49:22.577Z,101704.66
2023-03-02T21:51:50.689Z,101707.47
2023-03-02T21:54:18.627Z,101711.75
2023-03-02T21:56:46.540Z,101702.25
2023-03-02T21:59:14.446Z,101696.31
2023-03-02T22:01:42.458Z,101693.06
2023-03-02T22:04:10.520Z,101691.56
2023-03-02T22:06:38.467Z,101691.69
2023-03-02T22:09:06.424Z,101685.09
2023-03-02T22:11:37.953Z,101687.50
2023-03-02T22:14:17.741Z,101696.44
2023-03-02T22:16:48.080Z,101696.53
2023-03-02T22:19:31.788Z,101694.00
2023-03-02T22:22:03.209Z,101696.56
2023-03-02T22:24:33.464Z,101695.66
2023-03-02T22:27:31.329Z,101695.66
2023-03-02T22:30:01.637Z,101688.41
2023-03-02T22:32:35.771Z,101681.78
2023-03-02T22:35:24.350Z,101680.44
2023-03-02T22:38:02.717Z,101677.38
2023-03-02T22:40:34.888Z,101672.97
2023-03-02T22:43:29.453Z,101670.53
2023-03-02T22:46:18.570Z,101666.13
2023-03-02T22:48:52.817Z,101665.09
2023-03-02T22:51:29.961Z,101668.84
2023-03-02T22:54:00.721Z,101660.84
2023-03-02T22:56:42.934Z,101660.13
2023-03-02T22:59:26.721Z,101656.41
2023-03-02T23:02:06.274Z,101654.38
2023-03-02T23:04:38.159Z,101654.22
2023-03-02T23:07:20.936Z,101645.06
2023-03-02T23:09:49.437Z,101648.91
2023-03-02T23:12:27.408Z,101649.41
2023-03-02T23:14:58.823Z,101645.44
2023-03-02T23:17:41.397Z,101641.25
2023-03-02T23:20:14.386Z,101636.81
2023-03-02T23:22:46.017Z,101632.97
2023-03-02T23:25:14.600Z,101631.28
2023-03-02T23:27:42.555Z,101625.94
2023-03-02T23:30:11.316Z,101650.44
2023-03-02T23:32:39.215Z,101651.03
2023-03-02T23:35:07.518Z,101656.75
2023-03-02T23:37:35.444Z,101661.09
2023-03-02T23:40:04.120Z,101650.03
2023-03-02T23:42:32.053Z,101641.47
2023-03-02T23:45:00.120Z,101659.69
2023-03-02T23:47:28.100Z,101660.59
2023-03-02T23:49:56.155Z,101670.97
2023-03-02T23:52:24.118Z,101673.00
2023-03-02T23:54:52.025Z,101670.34
2023-03-02T23:57:20.161Z,101665.22
2023-03-02T23:59:48.058Z,101667.41
